createdAt,value
2023-03-04T00:00:32.268Z,92.66
2023-03-04T00:03:20.134Z,93.17
2023-03-04T00:05:47.473Z,92.63
2023-03-04T00:08:15.180Z,92.63
2023-03-04T00:10:42.686Z,92.95
2023-03-04T00:13:10.278Z,93.06
2023-03-04T00:15:37.515Z,92.83
2023-03-04T00:18:05.140Z,93.02
2023-03-04T00:20:32.520Z,92.75
2023-03-04T00:23:00.100Z,92.53
2023-03-04T00:25:27.382Z,92.20
2023-03-04T00:27:54.939Z,92.42
2023-03-04T00:30:22.198Z,92.29
2023-03-04T00:32:49.948Z,92.35
2023-03-04T00:35:17.444Z,92.45
2023-03-04T00:37:44.977Z,92.22
2023-03-04T00:40:12.952Z,92.76
2023-03-04T00:42:40.510Z,92.41
2023-03-04T00:45:09.283Z,92.88
2023-03-04T00:47:36.887Z,92.59
2023-03-04T00:50:05.024Z,92.76
2023-03-04T00:52:32.979Z,92.68
2023-03-04T00:55:00.253Z,92.68
2023-03-04T00:57:27.803Z,92.39
2023-03-04T00:59:55.062Z,92.32
2023-03-04T01:02:22.601Z,92.28
2023-03-04T01:04:49.920Z,92.43
2023-03-04T01:07:17.416Z,92.44
2023-03-04T01:09:44.822Z,92.41
2023-03-04T01:12:12.507Z,92.54
2023-03-04T01:14:39.802Z,92.48
2023-03-04T01:17:07.319Z,92.59
2023-03-04T01:19:34.593Z,92.31
2023-03-04T01:22:02.159Z,92.58
2023-03-04T01:24:30.216Z,92.23
2023-03-04T01:26:57.758Z,92.21
2023-03-04T01:29:24.968Z,91.76
2023-03-04T01:31:52.477Z,91.64
2023-03-04T01:34:19.747Z,91.32
2023-03-04T01:36:47.310Z,91.46
2023-03-04T01:39:14.546Z,91.87
2023-03-04T01:41:42.270Z,91.78
2023-03-04T01:44:11.204Z,91.98
2023-03-04T01:46:44.004Z,91.91
2023-03-04T01:49:17.199Z,91.72
2023-03-04T01:51:50.579Z,91.56
2023-03-04T01:54:18.424Z,91.98
2023-03-04T01:56:48.871Z,91.64
2023-03-04T01:59:23.997Z,91.94
2023-03-04T02:01:56.033Z,91.33
2023-03-04T02:04:34.520Z,92.02
2023-03-04T02:07:04.652Z,91.80
2023-03-04T02:09:34.348Z,91.71
2023-03-04T02:12:02.510Z,91.95
2023-03-04T02:14:29.881Z,90.93
2023-03-04T02:16:57.646Z,91.30
2023-03-04T02:20:02.650Z,91.88
2023-03-04T02:22:30.653Z,92.25
2023-03-04T02:25:15.967Z,92.04
2023-03-04T02:27:43.537Z,92.04
2023-03-04T02:30:20.290Z,91.98
2023-03-04T02:32:47.992Z,92.06
2023-03-04T02:35:18.888Z,92.10
2023-03-04T02:37:46.799Z,91.80
2023-03-04T02:40:29.518Z,91.71
2023-03-04T02:43:01.217Z,92.63
2023-03-04T02:45:36.451Z,92.66
2023-03-04T02:48:04.779Z,92.02
2023-03-04T02:50:42.982Z,92.06
2023-03-04T02:53:11.013Z,92.14
2023-03-04T02:55:38.518Z,92.40
2023-03-04T02:58:06.114Z,92.70
2023-03-04T03:00:33.640Z,92.20
2023-03-04T03:03:01.298Z,92.25
2023-03-04T03:05:32.548Z,92.34
2023-03-04T03:08:00.331Z,92.44
2023-03-04T03:10:28.321Z,92.39
2023-03-04T03:12:55.977Z,91.49
2023-03-04T03:15:23.331Z,91.66
2023-03-04T03:17:51.016Z,92.19
2023-03-04T03:20:18.460Z,92.75
2023-03-04T03:22:46.133Z,92.72
2023-03-04T03:25:15.573Z,92.87
2023-03-04T03:27:43.455Z,92.96
2023-03-04T03:30:14.160Z,92.68
2023-03-04T03:32:41.739Z,92.31
2023-03-04T03:35:09.567Z,91.96
2023-03-04T03:37:37.130Z,91.39
2023-03-04T03:40:05.582Z,91.35
2023-03-04T03:42:33.220Z,91.59
2023-03-04T03:45:00.471Z,91.98
2023-03-04T03:47:28.072Z,91.78
2023-03-04T03:49:55.386Z,91.75
2023-03-04T03:52:22.988Z,91.98
2023-03-04T03:54:50.374Z,91.53
2023-03-04T03:57:17.946Z,91.19
2023-03-04T03:59:45.308Z,92.02
2023-03-04T04:02:12.918Z,91.92
2023-03-04T04:04:40.330Z,91.88
2023-03-04T04:07:07.837Z,91.96
2023-03-04T04:09:35.136Z,91.80
2023-03-04T04:12:06.304Z,91.50
2023-03-04T04:14:34.190Z,91.53
2023-03-04T04:17:01.767Z,91.90
2023-03-04T04:19:29.080Z,91.85
2023-03-04T04:21:56.662Z,91.29
2023-03-04T04:24:24.168Z,91.46
2023-03-04T04:26:51.846Z,90.93
2023-03-04T04:29:19.721Z,91.03
2023-03-04T04:31:47.318Z,90.18
2023-03-04T04:34:14.710Z,90.38
2023-03-04T04:36:42.495Z,90.66
2023-03-04T04:39:09.855Z,90.61
2023-03-04T04:41:41.103Z,91.06
2023-03-04T04:44:10.723Z,91.27
2023-03-04T04:46:39.609Z,91.54
2023-03-04T04:49:08.018Z,91.19
2023-03-04T04:51:38.377Z,91.16
2023-03-04T04:54:06.822Z,91.22
2023-03-04T04:56:34.620Z,91.42
2023-03-04T04:59:05.090Z,91.43
2023-03-04T05:01:33.028Z,91.60
2023-03-04T05:04:00.453Z,91.26
2023-03-04T05:06:28.311Z,91.24
2023-03-04T05:08:55.910Z,91.38
2023-03-04T05:11:23.663Z,91.49
2023-03-04T05:13:51.613Z,91.19
2023-03-04T05:16:19.510Z,91.35
2023-03-04T05:18:47.003Z,90.90
2023-03-04T05:21:14.926Z,91.05
2023-03-04T05:23:44.071Z,91.20
2023-03-04T05:26:17.828Z,90.20
2023-03-04T05:28:45.938Z,90.46
2023-03-04T05:31:13.530Z,90.47
2023-03-04T05:33:41.118Z,90.35
2023-03-04T05:36:09.268Z,90.07
2023-03-04T05:38:37.068Z,89.35
2023-03-04T05:41:07.741Z,89.88
2023-03-04T05:43:36.350Z,89.55
2023-03-04T05:46:04.961Z,89.46
2023-03-04T05:48:32.316Z,89.21
2023-03-04T05:51:01.823Z,88.87
2023-03-04T05:53:29.493Z,89.07
2023-03-04T05:55:59.363Z,89.35
2023-03-04T05:58:26.709Z,89.16
2023-03-04T06:00:54.477Z,89.11
2023-03-04T06:03:25.442Z,89.54
2023-03-04T06:05:54.399Z,89.22
2023-03-04T06:08:21.712Z,89.60
2023-03-04T06:10:54.395Z,89.24
2023-03-04T06:13:22.606Z,89.35
2023-03-04T06:15:56.341Z,89.40
2023-03-04T06:18:26.117Z,88.41
2023-03-04T06:21:00.209Z,88.79
2023-03-04T06:23:28.329Z,88.38
2023-03-04T06:25:58.994Z,88.10
2023-03-04T06:28:26.859Z,87.80
2023-03-04T06:30:56.332Z,87.81
2023-03-04T06:33:23.925Z,87.79
2023-03-04T06:35:56.415Z,87.47
2023-03-04T06:38:25.415Z,87.05
2023-03-04T06:40:54.312Z,86.96
2023-03-04T06:43:23.377Z,86.02
2023-03-04T06:45:50.961Z,85.73
2023-03-04T06:48:18.274Z,85.99
2023-03-04T06:50:45.847Z,84.70
2023-03-04T06:53:13.206Z,85.00
2023-03-04T06:55:40.852Z,85.79
2023-03-04T06:58:08.154Z,85.96
2023-03-04T07:00:35.740Z,85.73
2023-03-04T07:03:03.256Z,85.07
2023-03-04T07:05:30.972Z,85.12
2023-03-04T07:07:58.162Z,85.90
2023-03-04T07:10:25.788Z,85.99
2023-03-04T07:12:53.077Z,86.13
2023-03-04T07:15:20.839Z,86.42
2023-03-04T07:17:48.101Z,86.99
2023-03-04T07:20:15.796Z,86.57
2023-03-04T07:22:43.052Z,86.02
2023-03-04T07:25:10.950Z,85.95
2023-03-04T07:27:41.330Z,85.65
2023-03-04T07:30:10.142Z,85.19
2023-03-04T07:32:37.536Z,85.13
2023-03-04T07:35:06.026Z,84.36
2023-03-04T07:37:33.582Z,84.29
2023-03-04T07:40:01.172Z,84.39
2023-03-04T07:42:28.547Z,83.99
2023-03-04T07:44:56.129Z,82.96
2023-03-04T07:47:23.392Z,82.99
2023-03-04T07:49:51.089Z,82.71
2023-03-04T07:52:18.411Z,82.53
2023-03-04T07:54:45.988Z,82.63
2023-03-04T07:57:13.332Z,82.40
2023-03-04T07:59:41.012Z,82.54
2023-03-04T08:02:10.572Z,82.62
2023-03-04T08:04:38.276Z,83.25
2023-03-04T08:07:05.612Z,83.13
2023-03-04T08:09:33.191Z,83.34
2023-03-04T08:12:00.487Z,83.20
2023-03-04T08:14:28.080Z,83.05
2023-03-04T08:16:55.419Z,83.18
2023-03-04T08:19:25.025Z,82.69
2023-03-04T08:21:53.186Z,82.54
2023-03-04T08:24:20.819Z,82.14
2023-03-04T08:26:50.645Z,81.72
2023-03-04T08:29:22.613Z,81.97
2023-03-04T08:31:52.656Z,81.84
2023-03-04T08:34:25.333Z,81.67
2023-03-04T08:36:52.788Z,81.53
2023-03-04T08:39:20.917Z,80.81
2023-03-04T08:41:49.282Z,80.87
2023-03-04T08:44:17.100Z,80.98
2023-03-04T08:46:44.417Z,80.77
2023-03-04T08:49:13.108Z,80.69
2023-03-04T08:51:40.843Z,79.87
2023-03-04T08:54:08.513Z,79.48
2023-03-04T08:56:35.903Z,79.00
2023-03-04T08:59:03.960Z,78.52
2023-03-04T09:01:31.358Z,78.60
2023-03-04T09:03:59.044Z,78.56
2023-03-04T09:06:26.565Z,77.91
2023-03-04T09:08:54.253Z,77.83
2023-03-04T09:11:21.724Z,77.58
2023-03-04T09:13:51.364Z,77.80
2023-03-04T09:16:18.964Z,77.64
2023-03-04T09:18:46.607Z,78.30
2023-03-04T09:21:14.157Z,78.39
2023-03-04T09:23:42.894Z,77.74
2023-03-04T09:26:25.151Z,78.24
2023-03-04T09:28:57.258Z,78.15
2023-03-04T09:31:26.942Z,78.33
2023-03-04T09:33:56.199Z,78.10
2023-03-04T09:36:24.618Z,78.57
2023-03-04T09:38:52.756Z,78.33
2023-03-04T09:41:29.206Z,78.42
2023-03-04T09:43:58.466Z,78.68
2023-03-04T09:46:41.659Z,77.90
2023-03-04T09:49:14.170Z,78.27
2023-03-04T09:51:51.987Z,78.33
2023-03-04T09:54:46.668Z,78.59
2023-03-04T09:57:42.991Z,78.72
2023-03-04T10:00:25.928Z,78.39
2023-03-04T10:03:24.801Z,78.79
2023-03-04T10:06:07.457Z,78.71
2023-03-04T10:08:50.180Z,78.85
2023-03-04T10:11:42.864Z,78.71
2023-03-04T10:14:22.557Z,78.79
2023-03-04T10:17:19.711Z,79.14
2023-03-04T10:20:06.146Z,79.46
2023-03-04T10:22:52.103Z,79.49
2023-03-04T10:25:30.405Z,79.47
2023-03-04T10:28:33.707Z,79.66
2023-03-04T10:31:38.820Z,79.95
2023-03-04T10:34:07.235Z,80.36
2023-03-04T10:37:02.988Z,80.25
2023-03-04T10:39:47.166Z,80.19
2023-03-04T10:42:14.520Z,80.12
2023-03-04T10:44:54.330Z,80.48
2023-03-04T10:47:29.472Z,80.79
2023-03-04T10:50:03.700Z,81.12
2023-03-04T10:52:50.016Z,81.64
2023-03-04T10:55:21.742Z,81.75
2023-03-04T10:57:55.718Z,81.36
2023-03-04T11:00:35.231Z,81.72
2023-03-04T11:03:29.694Z,82.01
2023-03-04T11:06:22.239Z,82.55
2023-03-04T11:08:59.101Z,82.75
2023-03-04T11:11:40.164Z,82.46
2023-03-04T11:14:29.547Z,82.00
2023-03-04T11:17:01.578Z,82.96
2023-03-04T11:19:39.161Z,83.49
2023-03-04T11:22:07.192Z,83.23
2023-03-04T11:24:38.172Z,83.26
2023-03-04T11:27:24.325Z,83.62
2023-03-04T11:30:13.571Z,83.93
2023-03-04T11:32:48.947Z,83.63
2023-03-04T11:35:31.160Z,83.64
2023-03-04T11:38:17.084Z,83.47
2023-03-04T11:40:49.379Z,83.63
2023-03-04T11:43:32.809Z,83.19
2023-03-04T11:46:56.486Z,82.78
2023-03-04T11:50:03.569Z,82.21
2023-03-04T11:52:36.558Z,82.44
2023-03-04T11:55:38.904Z,82.11
2023-03-04T11:58:55.438Z,82.67
2023-03-04T12:01:45.437Z,82.36
2023-03-04T12:04:27.444Z,81.14
2023-03-04T12:07:50.393Z,81.39
2023-03-04T12:10:53.159Z,79.64
2023-03-04T12:13:35.539Z,79.26
2023-03-04T12:16:50.864Z,78.42
2023-03-04T12:19:47.897Z,77.89
2023-03-04T12:22:48.965Z,77.15
2023-03-04T12:25:22.361Z,77.08
2023-03-04T12:28:23.105Z,77.50
2023-03-04T12:31:17.596Z,77.50
2023-03-04T12:34:04.307Z,76.87
2023-03-04T12:36:59.003Z,77.02
2023-03-04T12:39:39.720Z,76.97
2023-03-04T12:42:55.774Z,76.72
2023-03-04T12:45:59.510Z,77.24
2023-03-04T12:48:44.201Z,77.37
2023-03-04T12:51:37.348Z,76.36
2023-03-04T12:54:24.086Z,76.11
2023-03-04T12:57:11.972Z,76.00
2023-03-04T13:00:20.396Z,75.82
2023-03-04T13:03:19.224Z,75.17
2023-03-04T13:05:57.399Z,75.21
2023-03-04T13:09:01.499Z,75.65
2023-03-04T13:11:30.109Z,75.12
2023-03-04T13:14:17.493Z,75.09
2023-03-04T13:16:49.416Z,74.83
2023-03-04T13:19:49.008Z,75.31
2023-03-04T13:22:48.049Z,75.21
2023-03-04T13:25:50.269Z,74.88
2023-03-04T13:28:25.624Z,75.61
2023-03-04T13:30:56.009Z,75.35
2023-03-04T13:33:23.618Z,75.49
2023-03-04T13:36:05.414Z,75.36
2023-03-04T13:38:38.834Z,75.11
2023-03-04T13:41:28.400Z,74.93
2023-03-04T13:43:58.443Z,74.75
2023-03-04T13:46:27.642Z,74.98
2023-03-04T13:49:02.317Z,75.20
2023-03-04T13:51:46.290Z,75.17
2023-03-04T13:54:19.847Z,75.56
2023-03-04T13:56:50.935Z,75.93
2023-03-04T13:59:44.325Z,75.88
2023-03-04T14:02:15.049Z,76.61
2023-03-04T14:04:46.042Z,76.43
2023-03-04T14:07:26.482Z,76.39
2023-03-04T14:10:12.648Z,76.55
2023-03-04T14:12:59.148Z,76.80
2023-03-04T14:15:32.207Z,76.24
2023-03-04T14:18:05.466Z,76.12
2023-03-04T14:20:42.785Z,76.40
2023-03-04T14:23:42.719Z,76.78
2023-03-04T14:26:15.901Z,76.71
2023-03-04T14:28:52.051Z,76.97
2023-03-04T14:31:27.657Z,76.51
2023-03-04T14:34:02.546Z,76.17
2023-03-04T14:36:35.900Z,76.02
2023-03-04T14:39:07.364Z,75.25
2023-03-04T14:41:39.560Z,74.66
2023-03-04T14:44:38.148Z,74.51
2023-03-04T14:47:19.586Z,74.35
2023-03-04T14:49:47.656Z,74.57
2023-03-04T14:52:43.522Z,74.92
2023-03-04T14:55:27.112Z,75.24
2023-03-04T14:58:21.852Z,75.25
2023-03-04T15:00:49.955Z,75.81
2023-03-04T15:03:30.563Z,75.17
2023-03-04T15:06:16.439Z,75.09
2023-03-04T15:08:45.494Z,75.03
2023-03-04T15:11:29.898Z,75.04
2023-03-04T15:13:59.891Z,75.36
2023-03-04T15:16:49.776Z,74.96
2023-03-04T15:19:30.258Z,74.88
2023-03-04T15:22:08.239Z,74.78
2023-03-04T15:24:36.130Z,74.97
2023-03-04T15:27:07.803Z,75.37
2023-03-04T15:29:35.591Z,75.27
2023-03-04T15:32:02.903Z,75.63
2023-03-04T15:34:30.984Z,75.66
2023-03-04T15:37:00.212Z,75.66
2023-03-04T15:39:28.137Z,75.85
2023-03-04T15:41:56.020Z,76.18
2023-03-04T15:44:23.664Z,75.40
2023-03-04T15:46:50.928Z,75.75
2023-03-04T15:49:18.490Z,76.12
2023-03-04T15:51:45.834Z,75.60
2023-03-04T15:54:14.117Z,75.74
2023-03-04T15:56:41.619Z,76.01
2023-03-04T15:59:17.465Z,75.59
2023-03-04T16:01:45.193Z,75.17
2023-03-04T16:04:17.219Z,75.20
2023-03-04T16:06:48.385Z,75.68
2023-03-04T16:09:21.252Z,75.69
2023-03-04T16:11:48.639Z,75.71
2023-03-04T16:14:17.158Z,76.26
2023-03-04T16:16:46.592Z,75.95
2023-03-04T16:19:15.251Z,75.84
2023-03-04T16:21:42.710Z,75.89
2023-03-04T16:24:20.003Z,75.64
2023-03-04T16:26:47.955Z,75.86
2023-03-04T16:29:16.883Z,75.41
2023-03-04T16:31:44.449Z,75.28
2023-03-04T16:34:12.382Z,75.09
2023-03-04T16:36:40.905Z,75.66
2023-03-04T16:39:22.981Z,75.44
2023-03-04T16:41:51.763Z,75.62
2023-03-04T16:44:19.679Z,75.56
2023-03-04T16:46:47.158Z,75.61
2023-03-04T16:49:14.709Z,75.65
2023-03-04T16:51:49.984Z,75.61
2023-03-04T16:54:28.016Z,75.61
2023-03-04T16:56:55.390Z,75.92
2023-03-04T16:59:23.323Z,76.00
2023-03-04T17:01:52.957Z,76.29
2023-03-04T17:04:21.622Z,75.93
2023-03-04T17:06:49.056Z,76.29
2023-03-04T17:09:16.727Z,76.21
2023-03-04T17:11:44.093Z,76.31
2023-03-04T17:14:11.808Z,75.38
2023-03-04T17:16:40.315Z,75.70
2023-03-04T17:19:07.913Z,76.02
2023-03-04T17:21:35.260Z,75.75
2023-03-04T17:24:03.545Z,75.73
2023-03-04T17:26:31.995Z,75.80
2023-03-04T17:28:59.701Z,75.73
2023-03-04T17:31:27.025Z,75.75
2023-03-04T17:33:54.701Z,76.28
2023-03-04T17:36:22.107Z,76.42
2023-03-04T17:38:52.021Z,76.28
2023-03-04T17:41:19.880Z,76.17
2023-03-04T17:43:51.642Z,76.41
2023-03-04T17:46:23.657Z,76.21
2023-03-04T17:48:57.640Z,76.40
2023-03-04T17:51:38.065Z,76.52
2023-03-04T17:54:08.694Z,76.40
2023-03-04T17:56:39.588Z,76.42
2023-03-04T17:59:12.666Z,76.22
2023-03-04T18:01:40.709Z,76.69
2023-03-04T18:04:08.937Z,76.90
2023-03-04T18:06:36.570Z,77.08
2023-03-04T18:09:05.520Z,77.68
2023-03-04T18:11:36.256Z,77.43
2023-03-04T18:14:04.531Z,77.76
2023-03-04T18:16:33.090Z,78.18
2023-03-04T18:19:02.353Z,78.30
2023-03-04T18:21:30.688Z,78.56
2023-03-04T18:23:59.239Z,79.01
2023-03-04T18:26:27.759Z,78.99
2023-03-04T18:28:57.124Z,79.12
2023-03-04T18:31:31.633Z,79.11
2023-03-04T18:34:01.977Z,79.54
2023-03-04T18:36:29.828Z,78.68
2023-03-04T18:38:59.533Z,79.45
2023-03-04T18:41:28.467Z,79.03
2023-03-04T18:43:56.508Z,79.37
2023-03-04T18:46:31.226Z,79.03
2023-03-04T18:49:09.016Z,79.38
2023-03-04T18:51:36.768Z,79.50
2023-03-04T18:54:04.982Z,79.64
2023-03-04T18:56:51.578Z,79.72
2023-03-04T18:59:44.677Z,79.03
2023-03-04T19:02:36.219Z,79.79
2023-03-04T19:05:14.309Z,80.02
2023-03-04T19:07:41.803Z,80.17
2023-03-04T19:10:12.318Z,81.08
2023-03-04T19:12:39.814Z,80.13
2023-03-04T19:15:10.396Z,80.29
2023-03-04T19:17:40.016Z,80.63
2023-03-04T19:20:10.045Z,80.46
2023-03-04T19:22:37.693Z,80.81
2023-03-04T19:25:06.022Z,80.81
2023-03-04T19:27:34.221Z,80.83
2023-03-04T19:30:02.469Z,81.03
2023-03-04T19:32:29.950Z,81.38
2023-03-04T19:34:57.759Z,81.43
2023-03-04T19:37:25.215Z,81.60
2023-03-04T19:39:54.562Z,82.08
2023-03-04T19:42:23.647Z,82.31
2023-03-04T19:44:51.840Z,82.48
2023-03-04T19:47:19.399Z,82.55
2023-03-04T19:49:47.215Z,82.43
2023-03-04T19:52:14.516Z,82.83
2023-03-04T19:54:42.162Z,82.78
2023-03-04T19:57:09.480Z,83.73
2023-03-04T19:59:37.190Z,84.24
2023-03-04T20:02:04.626Z,84.82
2023-03-04T20:04:32.533Z,85.02
2023-03-04T20:06:59.964Z,85.00
2023-03-04T20:09:27.720Z,85.07
2023-03-04T20:11:58.875Z,85.26
2023-03-04T20:14:28.179Z,85.79
2023-03-04T20:17:02.693Z,85.70
2023-03-04T20:19:32.256Z,86.00
2023-03-04T20:22:00.287Z,86.31
2023-03-04T20:24:28.096Z,86.88
2023-03-04T20:26:55.784Z,86.81
2023-03-04T20:29:23.705Z,86.96
2023-03-04T20:31:51.012Z,87.16
2023-03-04T20:34:18.798Z,87.42
2023-03-04T20:36:46.230Z,87.83
2023-03-04T20:39:28.689Z,87.78
2023-03-04T20:42:00.260Z,87.94
2023-03-04T20:44:28.476Z,87.68
2023-03-04T20:46:56.300Z,87.63
2023-03-04T20:49:28.422Z,87.76
2023-03-04T20:52:06.542Z,87.66
2023-03-04T20:54:39.300Z,87.24
2023-03-04T20:57:08.180Z,86.89
2023-03-04T20:59:38.612Z,87.03
2023-03-04T21:02:08.825Z,87.08
2023-03-04T21:04:36.572Z,87.05
2023-03-04T21:07:04.364Z,87.05
2023-03-04T21:09:32.080Z,86.74
2023-03-04T21:12:05.774Z,86.78
2023-03-04T21:14:33.578Z,86.66
2023-03-04T21:17:04.194Z,86.71
2023-03-04T21:19:42.398Z,86.80
2023-03-04T21:22:16.399Z,86.90
2023-03-04T21:24:45.660Z,86.67
2023-03-04T21:27:16.641Z,86.88
2023-03-04T21:29:44.484Z,87.08
2023-03-04T21:32:24.896Z,87.42
2023-03-04T21:34:55.329Z,85.82
2023-03-04T21:37:25.439Z,80.54
2023-03-04T21:39:54.448Z,78.96
2023-03-04T21:42:22.114Z,78.62
2023-03-04T21:44:51.473Z,78.31
2023-03-04T21:47:21.511Z,78.30
2023-03-04T21:49:49.333Z,78.25
2023-03-04T21:52:19.200Z,78.59
2023-03-04T21:54:47.973Z,78.90
2023-03-04T21:57:15.958Z,78.89
2023-03-04T21:59:43.529Z,78.82
2023-03-04T22:02:17.576Z,79.07
2023-03-04T22:04:45.730Z,79.25
2023-03-04T22:07:14.127Z,79.16
2023-03-04T22:09:41.720Z,79.17
2023-03-04T22:12:09.479Z,79.10
2023-03-04T22:14:37.135Z,79.16
2023-03-04T22:17:04.646Z,79.32
2023-03-04T22:19:33.450Z,79.39
2023-03-04T22:22:00.757Z,79.37
2023-03-04T22:24:28.948Z,79.03
2023-03-04T22:26:57.752Z,79.32
2023-03-04T22:29:25.546Z,78.90
2023-03-04T22:31:53.004Z,79.09
2023-03-04T22:34:20.869Z,79.63
2023-03-04T22:36:49.467Z,79.72
2023-03-04T22:39:19.478Z,80.22
2023-03-04T22:41:47.626Z,79.84
2023-03-04T22:44:15.428Z,80.19
2023-03-04T22:46:43.724Z,80.63
2023-03-04T22:49:13.884Z,80.75
2023-03-04T22:51:43.535Z,80.88
2023-03-04T22:54:16.920Z,81.06
2023-03-04T22:56:44.936Z,81.23
2023-03-04T22:59:13.734Z,81.21
2023-03-04T23:01:41.889Z,81.22
2023-03-04T23:04:09.497Z,81.60
2023-03-04T23:06:37.836Z,81.47
2023-03-04T23:09:05.958Z,82.03
2023-03-04T23:11:38.944Z,82.58
2023-03-04T23:14:08.552Z,83.03
2023-03-04T23:16:42.640Z,82.88
2023-03-04T23:19:16.637Z,83.19
2023-03-04T23:21:44.639Z,84.29
2023-03-04T23:24:13.513Z,83.81
2023-03-04T23:26:42.578Z,84.77
2023-03-04T23:29:16.474Z,85.07
2023-03-04T23:31:44.546Z,84.85
2023-03-04T23:34:12.930Z,84.62
2023-03-04T23:36:40.946Z,84.53
2023-03-04T23:39:09.200Z,84.50
2023-03-04T23:41:36.614Z,84.22
2023-03-04T23:44:04.626Z,84.48
2023-03-04T23:46:32.358Z,84.16
2023-03-04T23:49:00.525Z,84.26
2023-03-04T23:51:30.276Z,84.30
2023-03-04T23:53:58.924Z,84.37
2023-03-04T23:56:31.419Z,84.46
2023-03-04T23:59:00.704Z,83.86
